KHST/HST METAR and TAF weather

Enter ICAO airport designator
Station Type Date Time Source
KHST METAR 2021/01/16 01:56 UTC NOAA

KHST 160156Z AUTO 18004KT 10SM BKN090 19/13 A2989 RMK AO2 SLP125 T01930128


Station Type Date Time Source
KHST Decoded METAR 2021/01/16 01:56 UTC NOAA

Homestead Air Force Base, FL, United States (KHST) 25-29N 080-23W
Jan 15, 2021 - 08:56 PM EST / 2021.01.16 0156 UTC
Wind: from the S (180 degrees) at 5 MPH (4 KT):0
Visibility: 10 mile(s):0
Sky conditions: mostly cloudy
Temperature: 66.7 F (19.3 C)
Dew Point: 55.0 F (12.8 C)
Relative Humidity: 66%
Pressure (altimeter): 29.89 in. Hg (1012 hPa)
ob: KHST 160156Z AUTO 18004KT 10SM BKN090 19/13 A2989 RMK AO2 SLP125 T01930128
cycle: 2

Station Type Date Time Source
KHST TAF 2021/01/15 20:57 UTC NOAA

TAF TAF KHST 152000Z 1520/1702 32009KT 9999 SCT080 SCT200 QNH2986INS
BECMG 1523/1524 23009KT 9999 BKN060 BKN200 QNH2988INS
BECMG 1612/1613 31012G20KT 9999 NSW SCT060 SCT200 QNH2997INS TX24/1520Z TN16/1611Z

Example: see airport list